createdAt,value
2019-02-23T00:03:07.478Z,-6.10
2019-02-23T00:05:40.749Z,-6.50
2019-02-23T00:08:14.067Z,-6.60
2019-02-23T00:10:47.352Z,-6.50
2019-02-23T00:13:20.730Z,-6.80
2019-02-23T00:15:54.013Z,-7.00
2019-02-23T00:18:27.346Z,-6.80
2019-02-23T00:21:00.661Z,-6.60
2019-02-23T00:23:34.001Z,-7.00
2019-02-23T00:26:07.390Z,-7.20
2019-02-23T00:28:41.625Z,-7.10
2019-02-23T00:31:14.809Z,-7.10
2019-02-23T00:36:38.422Z,-7.20
2019-02-23T00:39:13.363Z,-7.20
2019-02-23T00:41:46.658Z,-7.20
2019-02-23T00:44:27.327Z,-7.20
2019-02-23T00:47:01.609Z,-7.30
2019-02-23T00:49:36.639Z,-7.30
2019-02-23T00:52:09.761Z,-7.20
2019-02-23T00:54:42.979Z,-7.20
2019-02-23T00:57:16.241Z,-7.20
2019-02-23T00:59:49.641Z,-7.20
2019-02-23T01:02:23.008Z,-7.00
2019-02-23T01:04:57.402Z,-7.10
2019-02-23T01:07:30.671Z,-7.10
2019-02-23T01:10:05.080Z,-7.00
2019-02-23T01:12:38.265Z,-7.00
2019-02-23T01:15:12.410Z,-7.10
2019-02-23T01:17:45.592Z,-7.30
2019-02-23T01:20:18.810Z,-7.30
2019-02-23T01:22:52.101Z,-7.30
2019-02-23T01:25:25.537Z,-7.20
2019-02-23T01:27:58.697Z,-7.00
2019-02-23T01:30:31.984Z,-6.80
2019-02-23T01:33:05.242Z,-6.70
2019-02-23T01:35:38.552Z,-6.90
2019-02-23T01:38:11.747Z,-7.20
2019-02-23T01:40:45.047Z,-7.50
2019-02-23T01:43:19.613Z,-7.40
2019-02-23T01:46:11.277Z,-7.40
2019-02-23T01:48:45.206Z,-7.50
2019-02-23T01:51:18.505Z,-7.20
2019-02-23T01:53:51.658Z,-7.10
2019-02-23T01:56:24.889Z,-7.40
2019-02-23T01:58:58.278Z,-7.50
2019-02-23T02:01:31.576Z,-7.70
2019-02-23T02:04:04.846Z,-7.80
2019-02-23T02:06:38.160Z,-7.80
2019-02-23T02:09:41.243Z,-7.70
2019-02-23T02:12:15.913Z,-7.70
2019-02-23T02:14:50.220Z,-7.80
2019-02-23T02:17:23.590Z,-7.90
2019-02-23T02:19:57.489Z,-7.80
2019-02-23T02:22:32.058Z,-8.00
2019-02-23T02:25:06.977Z,-7.90
2019-02-23T02:27:40.180Z,-7.90
2019-02-23T02:30:13.775Z,-7.80
2019-02-23T02:32:46.949Z,-7.70
2019-02-23T02:35:21.564Z,-7.70
2019-02-23T02:37:54.822Z,-7.80
2019-02-23T02:40:28.039Z,-7.50
2019-02-23T02:43:08.070Z,-7.40
2019-02-23T02:45:42.387Z,-7.40
2019-02-23T02:48:15.777Z,-7.20
2019-02-23T02:50:49.067Z,-7.30
2019-02-23T02:53:22.229Z,-7.20
2019-02-23T02:55:55.511Z,-7.40
2019-02-23T02:58:28.707Z,-7.40
2019-02-23T03:01:02.038Z,-7.40
2019-02-23T03:03:36.802Z,-7.20
2019-02-23T03:06:10.176Z,-7.20
2019-02-23T03:08:43.437Z,-7.10
2019-02-23T03:11:16.725Z,-7.20
2019-02-23T03:13:49.992Z,-7.40
2019-02-23T03:16:54.910Z,-7.40
2019-02-23T03:19:28.175Z,-7.50
2019-02-23T03:22:02.761Z,-7.50
2019-02-23T03:24:36.162Z,-7.40
2019-02-23T03:27:09.469Z,-7.20
2019-02-23T03:29:43.732Z,-7.00
2019-02-23T03:32:17.010Z,-7.10
2019-02-23T03:34:50.278Z,-7.10
2019-02-23T03:37:23.638Z,-7.10
2019-02-23T03:39:57.010Z,-7.20
2019-02-23T03:42:30.335Z,-7.20
2019-02-23T03:45:03.640Z,-7.70
2019-02-23T03:47:36.848Z,-7.50
2019-02-23T03:50:10.058Z,-7.40
2019-02-23T03:52:43.499Z,-7.30
2019-02-23T03:55:17.483Z,-7.20
2019-02-23T03:57:51.073Z,-7.10
2019-02-23T04:00:26.065Z,-7.00
2019-02-23T04:03:00.581Z,-6.90
2019-02-23T04:05:33.809Z,-7.00
2019-02-23T04:08:07.088Z,-7.10
2019-02-23T04:10:42.138Z,-7.10
2019-02-23T04:13:16.676Z,-7.60
2019-02-23T04:15:49.980Z,-7.70
2019-02-23T04:18:28.301Z,-7.50
2019-02-23T04:21:06.560Z,-7.90
2019-02-23T04:23:39.731Z,-7.90
2019-02-23T04:26:14.319Z,-8.10
2019-02-23T04:28:48.622Z,-7.90
2019-02-23T04:31:21.900Z,-7.90
2019-02-23T04:33:55.161Z,-7.90
2019-02-23T04:36:28.348Z,-7.70
2019-02-23T04:39:01.709Z,-7.80
2019-02-23T04:41:36.654Z,-7.80
2019-02-23T04:44:09.897Z,-7.90
2019-02-23T04:46:43.038Z,-8.10
2019-02-23T04:49:16.409Z,-8.10
2019-02-23T04:51:49.805Z,-8.20
2019-02-23T04:54:23.224Z,-8.10
2019-02-23T04:56:56.534Z,-8.10
2019-02-23T04:59:30.708Z,-8.30
2019-02-23T05:02:04.115Z,-8.00
2019-02-23T05:04:38.674Z,-7.80
2019-02-23T05:07:11.919Z,-7.70
2019-02-23T05:09:45.288Z,-7.60
2019-02-23T05:12:18.426Z,-7.60
2019-02-23T05:14:51.737Z,-7.90
2019-02-23T05:17:25.059Z,-7.70
2019-02-23T05:19:58.412Z,-7.90
2019-02-23T05:22:31.787Z,-7.90
2019-02-23T05:25:05.176Z,-7.80
2019-02-23T05:27:38.570Z,-7.70
2019-02-23T05:30:13.588Z,-7.80
2019-02-23T05:32:46.919Z,-7.60
2019-02-23T05:35:20.231Z,-7.60
2019-02-23T05:37:53.657Z,-7.70
2019-02-23T05:40:27.358Z,-8.00
2019-02-23T05:43:01.447Z,-8.00
2019-02-23T05:45:34.817Z,-7.80
2019-02-23T05:48:08.129Z,-7.80
2019-02-23T05:50:41.489Z,-7.80
2019-02-23T05:53:14.789Z,-7.90
2019-02-23T05:55:48.073Z,-8.00
2019-02-23T05:58:21.377Z,-8.10
2019-02-23T06:00:54.685Z,-7.90
2019-02-23T06:03:27.918Z,-8.20
2019-02-23T06:06:01.206Z,-8.20
2019-02-23T06:08:34.489Z,-7.90
2019-02-23T06:11:07.795Z,-8.10
2019-02-23T06:13:41.196Z,-8.00
2019-02-23T06:16:14.576Z,-8.10
2019-02-23T06:18:47.872Z,-8.10
2019-02-23T06:21:23.139Z,-8.30
2019-02-23T06:23:56.382Z,-8.30
2019-02-23T06:26:29.731Z,-8.10
2019-02-23T06:29:02.978Z,-7.90
2019-02-23T06:31:36.314Z,-7.60
2019-02-23T06:34:16.324Z,-7.40
2019-02-23T06:36:44.357Z,-7.50
2019-02-23T06:39:17.646Z,-7.20
2019-02-23T06:41:51.077Z,-7.10
2019-02-23T06:44:24.367Z,-6.90
2019-02-23T06:46:57.681Z,-6.70
2019-02-23T06:49:30.973Z,-6.70
2019-02-23T06:52:04.823Z,-6.50
2019-02-23T06:54:38.207Z,-6.30
2019-02-23T06:57:11.509Z,-6.10
2019-02-23T06:59:44.824Z,-6.00
2019-02-23T07:02:18.037Z,-5.80
2019-02-23T07:04:51.289Z,-5.80
2019-02-23T07:07:24.509Z,-5.70
2019-02-23T07:09:57.719Z,-5.50
2019-02-23T07:12:30.960Z,-5.40
2019-02-23T07:15:04.838Z,-5.10
2019-02-23T07:17:38.042Z,-5.00
2019-02-23T07:20:13.309Z,-4.90
2019-02-23T07:22:46.628Z,-4.80
2019-02-23T07:25:20.081Z,-4.70
2019-02-23T07:27:53.412Z,-4.50
2019-02-23T07:30:26.668Z,-4.40
2019-02-23T07:32:59.987Z,-4.50
2019-02-23T07:35:34.790Z,-4.40
2019-02-23T07:38:09.375Z,-4.40
2019-02-23T07:40:42.497Z,-4.40
2019-02-23T07:43:15.800Z,-4.20
2019-02-23T07:45:49.078Z,-4.00
2019-02-23T07:48:22.327Z,-4.10
2019-02-23T07:50:55.540Z,-3.80
2019-02-23T07:53:28.781Z,-3.80
2019-02-23T07:56:01.976Z,-3.70
2019-02-23T07:58:35.370Z,-3.30
2019-02-23T08:01:08.558Z,-3.30
2019-02-23T08:03:41.844Z,-3.30
2019-02-23T08:06:15.249Z,-3.30
2019-02-23T08:08:48.573Z,-3.30
2019-02-23T08:11:21.879Z,-3.30
2019-02-23T08:13:55.229Z,-3.20
2019-02-23T08:16:28.596Z,-3.00
2019-02-23T08:19:02.040Z,-3.00
2019-02-23T08:21:35.303Z,-2.90
2019-02-23T08:24:08.547Z,-2.90
2019-02-23T08:26:41.918Z,-2.80
2019-02-23T08:29:15.252Z,-2.70
2019-02-23T08:31:49.805Z,-2.50
2019-02-23T08:34:23.106Z,-2.50
2019-02-23T08:36:57.100Z,-2.40
2019-02-23T08:39:30.362Z,-2.50
2019-02-23T08:42:04.795Z,-2.40
2019-02-23T08:44:38.195Z,-2.50
2019-02-23T08:47:11.497Z,-2.40
2019-02-23T08:49:44.814Z,-2.40
2019-02-23T08:52:18.018Z,-2.30
2019-02-23T08:54:51.361Z,-2.40
2019-02-23T08:57:24.640Z,-2.40
2019-02-23T08:59:57.947Z,-2.30
2019-02-23T09:02:31.310Z,-2.20
2019-02-23T09:05:05.931Z,-2.10
2019-02-23T09:07:39.215Z,-1.90
2019-02-23T09:10:14.753Z,-1.90
2019-02-23T09:12:48.041Z,-1.70
2019-02-23T09:15:22.296Z,-2.00
2019-02-23T09:17:55.599Z,-2.00
2019-02-23T09:20:29.689Z,-2.00
2019-02-23T09:23:03.065Z,-1.70
2019-02-23T09:25:36.623Z,-1.90
2019-02-23T09:28:09.943Z,-1.60
2019-02-23T09:30:43.340Z,-1.70
2019-02-23T09:33:16.619Z,-1.80
2019-02-23T09:35:49.910Z,-1.60
2019-02-23T09:38:23.072Z,-1.80
2019-02-23T09:40:56.357Z,-1.70
2019-02-23T09:43:29.681Z,-1.70
2019-02-23T09:46:02.983Z,-1.90
2019-02-23T09:48:37.360Z,-1.70
2019-02-23T09:51:10.762Z,-1.60
2019-02-23T09:53:45.382Z,-1.60
2019-02-23T09:56:18.808Z,-1.70
2019-02-23T09:58:52.080Z,-1.90
2019-02-23T10:01:25.439Z,-1.80
2019-02-23T10:03:58.816Z,-1.80
2019-02-23T10:06:32.087Z,-1.80
2019-02-23T10:09:06.334Z,-1.80
2019-02-23T10:11:39.698Z,-1.80
2019-02-23T10:14:12.994Z,-1.60
2019-02-23T10:16:46.272Z,-1.30
2019-02-23T10:19:19.923Z,-1.30
2019-02-23T10:21:54.507Z,-0.90
2019-02-23T10:24:27.847Z,-1.00
2019-02-23T10:27:01.236Z,-1.00
2019-02-23T10:29:34.652Z,-0.90
2019-02-23T10:32:07.970Z,-0.70
2019-02-23T10:34:41.322Z,-0.80
2019-02-23T10:37:14.507Z,-1.10
2019-02-23T10:39:47.829Z,-0.90
2019-02-23T10:42:21.097Z,-1.10
2019-02-23T10:44:54.476Z,-1.10
2019-02-23T10:47:27.756Z,-1.00
2019-02-23T10:50:01.082Z,-1.00
2019-02-23T10:52:35.398Z,-0.90
2019-02-23T10:55:12.370Z,-1.00
2019-02-23T10:57:46.975Z,-0.90
2019-02-23T11:00:23.239Z,-0.80
2019-02-23T11:02:56.536Z,-1.00
2019-02-23T11:05:30.001Z,-0.60
2019-02-23T11:08:03.254Z,-0.30
2019-02-23T11:10:36.650Z,-0.30
2019-02-23T11:13:09.849Z,-0.20
2019-02-23T11:15:43.404Z,0.00
2019-02-23T11:18:16.598Z,-0.30
2019-02-23T11:20:49.890Z,-0.40
2019-02-23T11:23:23.465Z,-0.40
2019-02-23T11:25:56.682Z,-0.40
2019-02-23T11:28:30.087Z,-0.40
2019-02-23T11:31:03.387Z,-0.70
2019-02-23T11:33:36.659Z,-0.30
2019-02-23T11:36:10.000Z,0.00
2019-02-23T11:38:43.160Z,0.10
2019-02-23T11:41:17.809Z,0.20
2019-02-23T11:43:51.109Z,-0.10
2019-02-23T11:46:24.389Z,-0.10
2019-02-23T11:48:57.638Z,-0.20
2019-02-23T11:51:31.011Z,-0.10
2019-02-23T11:54:04.281Z,0.00
2019-02-23T11:56:37.620Z,0.20
2019-02-23T11:59:10.813Z,0.10
2019-02-23T12:01:44.221Z,0.30
2019-02-23T12:04:18.819Z,0.40
2019-02-23T12:06:52.058Z,0.70
2019-02-23T12:09:25.317Z,0.60
2019-02-23T12:11:58.507Z,0.80
2019-02-23T12:14:31.766Z,1.00
2019-02-23T12:17:05.194Z,0.90
2019-02-23T12:19:43.548Z,1.00
2019-02-23T12:22:16.851Z,0.80
2019-02-23T12:24:50.145Z,0.50
2019-02-23T12:27:23.471Z,0.60
2019-02-23T12:29:56.868Z,0.80
2019-02-23T12:32:30.171Z,0.60
2019-02-23T12:35:03.462Z,0.60
2019-02-23T12:37:36.650Z,0.50
2019-02-23T12:40:11.906Z,0.30
2019-02-23T12:42:45.199Z,0.40
2019-02-23T12:45:18.459Z,0.50
2019-02-23T12:47:51.778Z,0.30
2019-02-23T12:50:25.051Z,0.30
2019-02-23T12:52:59.814Z,0.20
2019-02-23T12:55:33.280Z,0.30
2019-02-23T12:58:06.690Z,0.30
2019-02-23T13:00:40.037Z,0.40
2019-02-23T13:03:14.358Z,0.40
2019-02-23T13:05:47.551Z,0.50
2019-02-23T13:08:20.707Z,0.40
2019-02-23T13:10:54.807Z,0.40
2019-02-23T13:13:44.247Z,0.50
2019-02-23T13:16:24.637Z,0.40
2019-02-23T13:19:26.219Z,0.40
2019-02-23T13:22:10.630Z,0.50
2019-02-23T13:24:57.055Z,0.40
2019-02-23T13:27:40.341Z,0.20
2019-02-23T13:30:45.130Z,0.30
2019-02-23T13:33:34.858Z,0.30
2019-02-23T13:36:20.809Z,0.30
2019-02-23T13:39:25.787Z,0.30
2019-02-23T13:42:12.990Z,0.20
2019-02-23T13:44:59.369Z,0.20
2019-02-23T13:47:53.613Z,0.30
2019-02-23T13:51:18.189Z,0.30
2019-02-23T13:54:05.050Z,0.40
2019-02-23T13:56:57.407Z,0.40
2019-02-23T13:59:59.289Z,0.50
2019-02-23T14:03:18.736Z,0.40
2019-02-23T14:06:17.610Z,0.30
2019-02-23T14:09:17.729Z,0.70
2019-02-23T14:12:40.600Z,0.90
2019-02-23T14:15:48.642Z,0.90
2019-02-23T14:18:59.770Z,1.20
2019-02-23T14:21:52.631Z,1.30
2019-02-23T14:24:36.161Z,1.40
2019-02-23T14:27:35.448Z,1.20
2019-02-23T14:30:50.957Z,1.00
2019-02-23T14:33:45.084Z,1.00
2019-02-23T14:36:42.281Z,1.10
2019-02-23T14:39:43.846Z,1.00
2019-02-23T14:42:39.423Z,1.00
2019-02-23T14:45:36.686Z,0.80
2019-02-23T14:48:39.788Z,0.60
2019-02-23T14:51:33.715Z,0.60
2019-02-23T14:54:20.419Z,0.60
2019-02-23T14:57:21.602Z,0.60
2019-02-23T15:00:25.001Z,0.70
2019-02-23T15:03:34.459Z,0.80
2019-02-23T15:06:42.385Z,0.90
2019-02-23T15:09:51.209Z,0.70
2019-02-23T15:12:48.209Z,0.70
2019-02-23T15:15:31.625Z,0.30
2019-02-23T15:18:38.733Z,0.30
2019-02-23T15:21:25.338Z,0.30
2019-02-23T15:24:14.797Z,0.30
2019-02-23T15:27:07.251Z,0.30
2019-02-23T15:29:56.933Z,0.20
2019-02-23T15:36:02.757Z,0.10
2019-02-23T15:38:59.198Z,0.00
2019-02-23T15:41:56.566Z,0.10
2019-02-23T15:44:37.468Z,0.00
2019-02-23T15:47:30.364Z,0.00
2019-02-23T15:50:13.027Z,0.00
2019-02-23T15:52:39.835Z,0.00
2019-02-23T15:55:25.387Z,0.00
2019-02-23T15:57:47.940Z,0.00
2019-02-23T16:00:21.113Z,0.00
2019-02-23T16:02:56.362Z,0.00
2019-02-23T16:05:31.461Z,-0.10
2019-02-23T16:08:04.868Z,-0.10
2019-02-23T16:10:38.242Z,-0.10
2019-02-23T16:13:12.381Z,0.00
2019-02-23T16:15:47.065Z,-0.10
2019-02-23T16:18:20.729Z,-0.10
2019-02-23T16:20:54.514Z,-0.10
2019-02-23T16:23:35.322Z,-0.10
2019-02-23T16:26:04.664Z,-0.20
2019-02-23T16:28:38.426Z,-0.20
2019-02-23T16:31:12.174Z,-0.20
2019-02-23T16:33:45.421Z,-0.30
2019-02-23T16:36:18.791Z,-0.20
2019-02-23T16:38:52.146Z,-0.20
2019-02-23T16:41:25.447Z,-0.30
2019-02-23T16:43:58.751Z,-0.20
2019-02-23T16:46:32.038Z,-0.20
2019-02-23T16:49:06.508Z,-0.30
2019-02-23T16:51:39.865Z,-0.20
2019-02-23T16:54:13.152Z,-0.40
2019-02-23T16:56:46.425Z,-0.30
2019-02-23T16:59:19.739Z,-0.40
2019-02-23T17:01:54.109Z,-0.40
2019-02-23T17:04:27.448Z,-0.40
2019-02-23T17:07:00.681Z,-0.40
2019-02-23T17:09:42.081Z,-0.50
2019-02-23T17:12:18.093Z,-0.50
2019-02-23T17:14:52.251Z,-0.40
2019-02-23T17:17:25.442Z,-0.30
2019-02-23T17:20:00.019Z,-0.50
2019-02-23T17:22:33.277Z,-0.50
2019-02-23T17:25:07.711Z,-0.50
2019-02-23T17:27:41.010Z,-0.60
2019-02-23T17:30:15.609Z,-0.60
2019-02-23T17:32:50.273Z,-0.70
2019-02-23T17:35:23.510Z,-0.70
2019-02-23T17:37:56.853Z,-0.70
2019-02-23T17:40:30.085Z,-0.70
2019-02-23T17:43:03.279Z,-0.70
2019-02-23T17:45:36.512Z,-0.60
2019-02-23T17:48:09.759Z,-0.70
2019-02-23T17:50:42.988Z,-0.60
2019-02-23T17:53:16.194Z,-0.60
2019-02-23T17:55:49.411Z,-0.40
2019-02-23T17:58:22.748Z,-0.50
2019-02-23T18:00:56.560Z,-0.60
2019-02-23T18:03:29.839Z,-0.60
2019-02-23T18:06:03.190Z,-0.60
2019-02-23T18:08:41.322Z,-0.70
2019-02-23T18:11:16.733Z,-0.70
2019-02-23T18:13:51.175Z,-0.70
2019-02-23T18:16:25.161Z,-0.70
2019-02-23T18:19:02.491Z,-0.80
2019-02-23T18:21:35.909Z,-0.80
2019-02-23T18:24:09.475Z,-0.80
2019-02-23T18:26:44.359Z,-0.80
2019-02-23T18:29:18.115Z,-0.80
2019-02-23T18:31:51.894Z,-0.80
2019-02-23T18:34:25.372Z,-1.00
2019-02-23T18:36:58.639Z,-1.00
2019-02-23T18:39:32.538Z,-1.00
2019-02-23T18:42:06.263Z,-1.10
2019-02-23T18:44:40.614Z,-1.20
2019-02-23T18:47:14.070Z,-1.20
2019-02-23T18:49:49.904Z,-1.20
2019-02-23T18:52:25.032Z,-1.40
2019-02-23T18:54:59.647Z,-1.60
2019-02-23T18:57:32.887Z,-2.00
2019-02-23T19:00:13.510Z,-2.20
2019-02-23T19:02:48.418Z,-2.00
2019-02-23T19:05:21.672Z,-2.00
2019-02-23T19:07:57.428Z,-1.90
2019-02-23T19:10:30.738Z,-1.90
2019-02-23T19:13:04.167Z,-2.10
2019-02-23T19:15:37.870Z,-2.20
2019-02-23T19:18:11.516Z,-2.10
2019-02-23T19:20:47.790Z,-2.10
2019-02-23T19:23:22.812Z,-2.10
2019-02-23T19:25:56.972Z,-2.40
2019-02-23T19:28:33.062Z,-2.20
2019-02-23T19:31:07.536Z,-2.10
2019-02-23T19:33:41.219Z,-2.20
2019-02-23T19:36:18.082Z,-2.10
2019-02-23T19:38:54.137Z,-1.90
2019-02-23T19:41:27.805Z,-1.90
2019-02-23T19:44:01.238Z,-1.80
2019-02-23T19:46:39.291Z,-1.90
2019-02-23T19:49:13.815Z,-1.70
2019-02-23T19:51:48.342Z,-1.80
2019-02-23T19:54:22.962Z,-1.80
2019-02-23T19:56:56.421Z,-1.70
2019-02-23T19:59:31.483Z,-1.80
2019-02-23T20:02:05.042Z,-1.90
2019-02-23T20:04:41.621Z,-2.10
2019-02-23T20:07:14.910Z,-2.30
2019-02-23T20:09:51.666Z,-2.10
2019-02-23T20:12:25.794Z,-2.10
2019-02-23T20:15:01.945Z,-2.50
2019-02-23T20:17:35.461Z,-2.60
2019-02-23T20:20:11.673Z,-2.50
2019-02-23T20:22:45.159Z,-2.50
2019-02-23T20:25:19.036Z,-2.50
2019-02-23T20:27:52.538Z,-2.90
2019-02-23T20:30:25.859Z,-2.80
2019-02-23T20:32:59.162Z,-2.70
2019-02-23T20:35:32.561Z,-2.90
2019-02-23T20:38:16.392Z,-3.00
2019-02-23T20:40:50.361Z,-2.90
2019-02-23T20:43:28.178Z,-3.10
2019-02-23T20:46:03.287Z,-3.20
2019-02-23T20:48:38.190Z,-3.30
2019-02-23T20:51:12.033Z,-3.20
2019-02-23T20:53:49.279Z,-3.10
2019-02-23T20:56:23.137Z,-3.00
2019-02-23T20:58:56.848Z,-3.20
2019-02-23T21:01:31.494Z,-3.20
2019-02-23T21:04:05.026Z,-3.10
2019-02-23T21:06:42.752Z,-3.30
2019-02-23T21:09:20.709Z,-3.60
2019-02-23T21:14:50.111Z,-3.70
2019-02-23T21:17:24.475Z,-3.70
2019-02-23T21:19:57.865Z,-3.60
2019-02-23T21:22:33.791Z,-3.90
2019-02-23T21:25:10.213Z,-4.10
2019-02-23T21:27:47.694Z,-3.90
2019-02-23T21:30:22.027Z,-4.30
2019-02-23T21:32:55.500Z,-4.00
2019-02-23T21:35:29.272Z,-4.00
2019-02-23T21:38:03.857Z,-4.30
2019-02-23T21:40:41.985Z,-4.20
2019-02-23T21:43:16.066Z,-4.00
2019-02-23T21:45:50.073Z,-4.30
2019-02-23T21:48:23.438Z,-4.20
2019-02-23T21:50:59.027Z,-4.00
2019-02-23T21:53:33.032Z,-3.90
2019-02-23T21:56:07.429Z,-4.20
2019-02-23T21:58:41.319Z,-4.20
2019-02-23T22:01:14.564Z,-4.20
2019-02-23T22:03:48.257Z,-4.30
2019-02-23T22:06:22.966Z,-4.00
2019-02-23T22:08:58.764Z,-4.00
2019-02-23T22:11:33.620Z,-4.20
2019-02-23T22:14:08.266Z,-4.30
2019-02-23T22:16:41.872Z,-4.20
2019-02-23T22:19:16.438Z,-4.00
2019-02-23T22:21:53.336Z,-4.20
2019-02-23T22:24:27.489Z,-4.20
2019-02-23T22:27:01.661Z,-4.40
2019-02-23T22:29:35.127Z,-4.40
2019-02-23T22:32:09.330Z,-4.50
2019-02-23T22:34:44.034Z,-4.20
2019-02-23T22:37:19.614Z,-4.20
2019-02-23T22:39:54.538Z,-4.20
2019-02-23T22:42:28.108Z,-4.20
2019-02-23T22:45:02.601Z,-4.20
2019-02-23T22:47:36.617Z,-4.10
2019-02-23T22:50:11.370Z,-3.70
2019-02-23T22:52:44.629Z,-3.50
2019-02-23T22:55:21.635Z,-3.40
2019-02-23T22:57:54.910Z,-3.40
2019-02-23T23:00:36.416Z,-3.40
2019-02-23T23:03:12.508Z,-3.40
2019-02-23T23:05:47.218Z,-3.20
2019-02-23T23:08:21.490Z,-3.60
2019-02-23T23:10:54.839Z,-3.60
2019-02-23T23:13:28.068Z,-3.40
2019-02-23T23:16:04.655Z,-3.20
2019-02-23T23:18:37.945Z,-3.20
2019-02-23T23:21:12.087Z,-3.10
2019-02-23T23:23:46.614Z,-3.20
2019-02-23T23:26:20.116Z,-3.10
2019-02-23T23:28:55.686Z,-3.10
2019-02-23T23:31:29.409Z,-3.00
2019-02-23T23:34:03.016Z,-3.00
2019-02-23T23:36:36.883Z,-3.00
2019-02-23T23:39:10.340Z,-2.90
2019-02-23T23:41:43.686Z,-3.00
2019-02-23T23:44:17.290Z,-2.90
2019-02-23T23:46:52.321Z,-2.90
2019-02-23T23:49:25.762Z,-3.40
2019-02-23T23:51:59.660Z,-3.60
2019-02-23T23:54:33.063Z,-3.70
2019-02-23T23:57:06.555Z,-3.90
2019-02-23T23:59:40.430Z,-3.90
